Time;durP1;ratioP1;P1;durP2;ratioP2;P2;SDS_P1;SDS_P2;PMS_P1;PMS_P2;Temp;Humidity;BMP_temperature;BMP_pressure;BME280_temperature;BME280_humidity;BME280_pressure;Samples;Min_cycle;Max_cycle;Signal;HPM_P1;HPM_P2
2022/02/28 00:01:42;;;;;;;9.38;3.92;;;;;;;2.37;64.59;102823.53;4969212;28;20037;-67
2022/02/28 00:04:08;;;;;;;9.35;4.90;;;;;;;2.40;64.41;102822.59;4987449;28;20042;-69
2022/02/28 00:06:33;;;;;;;11.85;4.18;;;;;;;2.38;64.45;102827.78;4990324;28;20030;-71
2022/02/28 00:08:59;;;;;;;11.73;4.20;;;;;;;2.38;64.57;102827.78;4994241;28;20496;-71
2022/02/28 00:11:24;;;;;;;9.07;4.22;;;;;;;2.24;65.17;102840.19;4989589;28;20021;-71
2022/02/28 00:13:50;;;;;;;15.07;4.65;;;;;;;2.25;65.13;102841.88;4987166;28;20038;-69
2022/02/28 00:16:15;;;;;;;11.05;4.20;;;;;;;2.27;65.08;102845.22;4987188;28;20038;-71
2022/02/28 00:18:41;;;;;;;10.10;4.03;;;;;;;2.16;65.30;102848.16;4977801;28;20029;-72
2022/02/28 00:21:07;;;;;;;12.23;4.68;;;;;;;2.21;65.40;102840.31;4975316;28;20463;-71
2022/02/28 00:23:32;;;;;;;11.18;4.57;;;;;;;2.11;65.65;102835.50;4991009;28;20451;-71
2022/02/28 00:25:58;;;;;;;14.45;4.70;;;;;;;2.11;65.91;102839.78;4997708;28;20403;-71
2022/02/28 00:28:23;;;;;;;9.23;3.78;;;;;;;2.10;66.01;102844.06;4972533;28;20662;-72
2022/02/28 00:30:49;;;;;;;9.20;4.30;;;;;;;1.98;66.20;102836.81;4986806;28;20637;-71
2022/02/28 00:33:14;;;;;;;6.07;3.63;;;;;;;1.97;66.48;102836.84;4972344;28;20667;-71
2022/02/28 00:35:40;;;;;;;10.32;4.10;;;;;;;1.94;66.36;102838.63;4960122;28;20042;-71
2022/02/28 00:38:08;;;;;;;10.38;4.35;;;;;;;1.87;66.70;102839.72;4973423;28;20022;-71
2022/02/28 00:40:34;;;;;;;10.68;4.55;;;;;;;1.87;66.93;102844.00;4972370;28;20029;-71
2022/02/28 00:43:00;;;;;;;11.18;4.47;;;;;;;1.89;66.36;102837.94;4983995;28;20491;-71
2022/02/28 00:45:25;;;;;;;10.63;4.57;;;;;;;1.86;66.56;102845.69;4984145;28;20443;-71
2022/02/28 00:47:51;;;;;;;8.98;4.47;;;;;;;1.77;67.26;102845.97;4975717;28;20115;-70
2022/02/28 00:50:17;;;;;;;10.50;4.78;;;;;;;1.73;67.38;102850.38;4976120;28;20051;-71
2022/02/28 00:52:42;;;;;;;10.48;5.00;;;;;;;1.73;67.58;102850.38;4973980;28;20034;-69
2022/02/28 00:55:10;;;;;;;11.63;4.65;;;;;;;1.73;67.45;102852.09;4987909;28;20050;-69
2022/02/28 00:57:36;;;;;;;12.63;5.63;;;;;;;1.77;67.13;102852.84;4981722;28;20034;-69
2022/02/28 01:00:05;;;;;;;11.95;4.32;;;;;;;1.57;67.84;102853.47;4985655;28;21498;-70
2022/02/28 01:02:30;;;;;;;9.73;4.50;;;;;;;1.47;68.13;102848.63;5000344;28;20038;-71
2022/02/28 01:04:56;;;;;;;10.88;5.20;;;;;;;1.55;68.23;102845.84;4980205;28;20092;-71
2022/02/28 01:07:22;;;;;;;11.88;4.85;;;;;;;1.46;68.14;102843.56;4971849;28;20042;-71
2022/02/28 01:09:47;;;;;;;9.45;4.75;;;;;;;1.53;68.27;102839.94;4971608;28;20030;-70
2022/02/28 01:12:13;;;;;;;12.23;4.55;;;;;;;1.57;67.98;102844.06;4972439;28;20030;-70
2022/02/28 01:14:38;;;;;;;13.23;5.00;;;;;;;1.58;68.03;102842.34;4972801;28;20116;-71
2022/02/28 01:17:06;;;;;;;11.02;4.82;;;;;;;1.44;68.19;102835.94;4973070;28;20440;-71
2022/02/28 01:19:32;;;;;;;11.02;4.85;;;;;;;1.49;68.43;102840.94;4972015;28;20161;-70
2022/02/28 01:21:57;;;;;;;12.85;4.63;;;;;;;1.36;68.55;102836.16;4970135;28;20042;-71
2022/02/28 01:24:23;;;;;;;17.65;5.30;;;;;;;1.35;68.79;102843.88;4994371;28;20030;-70
2022/02/28 01:26:48;;;;;;;12.38;5.43;;;;;;;1.33;69.08;102838.81;4972984;28;20041;-71
2022/02/28 01:29:15;;;;;;;12.57;5.47;;;;;;;1.32;69.04;102839.72;4956365;28;20038;-70
2022/02/28 01:31:41;;;;;;;11.32;5.05;;;;;;;1.30;68.96;102843.19;4983042;28;20031;-70
2022/02/28 01:34:06;;;;;;;10.05;5.50;;;;;;;1.24;69.27;102836.53;4972370;28;20034;-71
2022/02/28 01:36:32;;;;;;;13.07;5.13;;;;;;;1.21;69.65;102835.81;4956417;28;20022;-70
2022/02/28 01:39:00;;;;;;;14.38;5.25;;;;;;;1.27;69.50;102833.88;4976244;28;20674;-70
2022/02/28 01:41:26;;;;;;;14.73;6.00;;;;;;;1.14;69.50;102835.97;4986964;28;20440;-70
2022/02/28 01:43:51;;;;;;;13.05;5.93;;;;;;;1.14;69.99;102838.53;5001154;28;20041;-70
2022/02/28 01:46:17;;;;;;;15.65;5.20;;;;;;;1.09;70.01;102831.88;4961511;28;20034;-70
2022/02/28 01:48:43;;;;;;;13.05;5.80;;;;;;;1.11;70.13;102836.06;4972758;28;20030;-71
2022/02/28 01:51:09;;;;;;;12.32;4.88;;;;;;;1.06;69.71;102831.97;4974145;28;20100;-71
2022/02/28 01:53:34;;;;;;;17.52;5.40;;;;;;;1.00;70.13;102838.09;4973882;28;20042;-70
2022/02/28 01:56:00;;;;;;;9.75;4.45;;;;;;;0.96;70.62;102839.03;4990529;28;20061;-71
2022/02/28 01:58:34;;;;;;;13.88;5.15;;;;;;;0.95;70.75;102840.78;4977281;28;20049;-71
2022/02/28 02:00:59;;;;;;;13.95;5.07;;;;;;;0.89;71.01;102842.69;4975001;28;20035;-71
2022/02/28 02:03:25;;;;;;;14.55;5.25;;;;;;;0.94;71.00;102845.91;4972132;28;20550;-71
2022/02/28 02:05:50;;;;;;;10.63;5.07;;;;;;;0.96;70.80;102850.13;4970274;28;20041;-71
2022/02/28 02:08:16;;;;;;;13.45;4.82;;;;;;;0.97;70.51;102844.13;4973512;28;20042;-71
2022/02/28 02:10:43;;;;;;;10.88;4.30;;;;;;;0.81;71.29;102850.56;4972558;28;20042;-71
2022/02/28 02:13:11;;;;;;;14.38;5.07;;;;;;;0.70;72.06;102853.41;4988807;28;20100;-71
2022/02/28 02:15:38;;;;;;;13.52;5.85;;;;;;;0.84;71.39;102854.75;4995902;28;20053;-71
2022/02/28 02:18:04;;;;;;;9.27;4.40;;;;;;;0.81;71.33;102842.03;4986027;28;20088;-70
2022/02/28 02:20:33;;;;;;;12.88;4.50;;;;;;;0.87;71.34;102849.56;4971876;28;20199;-71
2022/02/28 02:23:01;;;;;;;16.60;6.18;;;;;;;0.96;70.97;102845.03;4974896;28;20053;-70
2022/02/28 02:25:27;;;;;;;12.65;5.13;;;;;;;0.89;71.20;102843.50;4985536;28;20040;-71
2022/02/28 02:27:55;;;;;;;13.75;5.40;;;;;;;0.84;71.12;102834.31;4967854;28;20675;-71
2022/02/28 02:30:21;;;;;;;11.73;4.80;;;;;;;0.81;71.06;102832.69;4981524;28;20117;-71
2022/02/28 02:32:48;;;;;;;11.18;4.88;;;;;;;0.72;71.68;102840.59;4968098;28;20049;-71
2022/02/28 02:35:14;;;;;;;10.20;5.00;;;;;;;0.71;71.34;102839.75;4968877;28;20106;-70
2022/02/28 02:37:39;;;;;;;9.65;4.97;;;;;;;0.63;71.88;102838.28;4983009;28;20547;-71
2022/02/28 02:40:06;;;;;;;10.30;4.60;;;;;;;0.67;71.83;102845.81;4967327;28;20932;-70
2022/02/28 02:42:32;;;;;;;14.40;4.95;;;;;;;0.60;71.78;102849.41;4972034;28;20038;-71
2022/02/28 02:44:57;;;;;;;11.40;4.75;;;;;;;0.54;72.06;102852.97;4969389;28;20041;-70
2022/02/28 02:47:22;;;;;;;11.80;5.15;;;;;;;0.67;71.57;102856.03;4969244;28;20018;-70
2022/02/28 02:50:06;;;;;;;14.07;5.20;;;;;;;0.52;71.85;102857.28;4967201;28;20041;-72
2022/02/28 02:52:34;;;;;;;11.07;5.38;;;;;;;0.57;71.89;102858.00;4965321;28;20076;-71
2022/02/28 02:55:00;;;;;;;14.02;5.47;;;;;;;0.63;71.53;102861.28;4968077;28;20380;-71
2022/02/28 02:57:28;;;;;;;12.13;5.45;;;;;;;0.69;71.54;102859.38;4976183;28;20037;-71
2022/02/28 02:59:54;;;;;;;12.82;5.35;;;;;;;0.74;71.27;102849.06;4985098;28;20169;-70
2022/02/28 03:02:20;;;;;;;15.88;5.43;;;;;;;0.69;71.55;102851.72;4969382;28;20416;-70
2022/02/28 03:04:46;;;;;;;15.43;5.65;;;;;;;0.61;71.87;102850.25;4984409;28;20077;-71
2022/02/28 03:07:19;;;;;;;11.60;5.47;;;;;;;0.60;71.73;102841.75;4985593;28;20500;-71
2022/02/28 03:09:47;;;;;;;10.98;5.43;;;;;;;0.63;71.55;102846.78;4984475;28;20034;-70
2022/02/28 03:12:14;;;;;;;14.75;5.10;;;;;;;0.70;71.28;102847.47;4984245;28;20432;-71
2022/02/28 03:14:40;;;;;;;10.82;5.50;;;;;;;0.53;72.13;102841.09;4957994;28;20026;-71
2022/02/28 03:17:07;;;;;;;12.82;5.70;;;;;;;0.57;71.99;102842.69;4991884;28;20022;-70
2022/02/28 03:19:33;;;;;;;9.80;4.30;;;;;;;0.62;72.10;102836.59;4958156;28;20029;-70
2022/02/28 03:21:59;;;;;;;12.50;5.57;;;;;;;0.43;72.47;102839.63;4962592;28;20053;-70
2022/02/28 03:24:25;;;;;;;13.50;5.47;;;;;;;0.41;72.94;102835.47;4968904;28;20046;-70
2022/02/28 03:26:51;;;;;;;10.23;5.65;;;;;;;0.46;72.68;102847.22;4968743;28;20034;-70
2022/02/28 03:29:17;;;;;;;15.93;5.55;;;;;;;0.53;72.46;102846.19;4971707;28;20518;-71
2022/02/28 03:31:43;;;;;;;12.23;5.55;;;;;;;0.58;72.17;102849.47;5001928;28;20033;-70
2022/02/28 03:34:10;;;;;;;14.13;5.88;;;;;;;0.65;72.02;102845.03;4972422;28;20031;-71
2022/02/28 03:36:35;;;;;;;11.93;5.10;;;;;;;0.60;72.09;102851.13;4969791;28;20029;-70
2022/02/28 03:39:09;;;;;;;11.60;5.45;;;;;;;0.53;72.47;102853.84;4979342;28;20045;-70
2022/02/28 03:41:35;;;;;;;10.45;5.90;;;;;;;0.45;72.89;102850.66;4989303;28;20088;-71
2022/02/28 03:44:01;;;;;;;15.02;6.15;;;;;;;0.37;73.16;102850.84;4953262;28;20038;-71
2022/02/28 03:46:31;;;;;;;13.75;5.65;;;;;;;0.36;73.22;102850.91;4970668;28;20129;-71
2022/02/28 03:49:05;;;;;;;13.35;6.18;;;;;;;0.41;73.00;102856.72;4989193;28;20046;-71
2022/02/28 03:51:38;;;;;;;13.75;6.10;;;;;;;0.26;73.54;102857.13;4959887;28;20031;-70
2022/02/28 03:54:10;;;;;;;10.82;6.10;;;;;;;0.14;73.62;102861.66;4970725;28;20266;-70
2022/02/28 03:56:36;;;;;;;12.60;5.80;;;;;;;0.13;73.85;102862.53;4959291;28;20033;-71
2022/02/28 03:59:02;;;;;;;20.00;6.90;;;;;;;0.05;74.38;102866.97;4988247;28;20034;-71
2022/02/28 04:01:27;;;;;;;10.77;6.18;;;;;;;0.06;74.14;102865.25;4987989;28;20583;-71
2022/02/28 04:03:55;;;;;;;13.60;5.95;;;;;;;0.01;74.83;102867.94;4973112;28;20515;-71
2022/02/28 04:06:21;;;;;;;12.68;5.93;;;;;;;-0.06;74.99;102866.41;4974508;28;20499;-71
2022/02/28 04:08:47;;;;;;;12.90;5.80;;;;;;;-0.07;74.92;102860.47;4960560;28;20033;-71
2022/02/28 04:11:13;;;;;;;12.65;5.93;;;;;;;0.08;74.43;102859.25;4973856;28;20035;-70
2022/02/28 04:13:39;;;;;;;13.40;6.63;;;;;;;0.08;74.50;102859.25;4973313;28;20093;-71
2022/02/28 04:16:07;;;;;;;15.77;6.30;;;;;;;0.05;74.22;102858.50;4956924;28;21727;-71
2022/02/28 04:18:33;;;;;;;21.38;6.50;;;;;;;-0.07;74.85;102851.97;4974081;28;20026;-70
2022/02/28 04:21:18;;;;;;;15.85;6.53;;;;;;;-0.09;75.27;102851.19;4973786;28;20137;-71
2022/02/28 04:23:44;;;;;;;15.30;6.50;;;;;;;-0.12;75.26;102841.88;4987176;28;20121;-71
2022/02/28 04:26:09;;;;;;;11.68;7.05;;;;;;;-0.04;74.79;102841.69;4974585;28;20029;-70
2022/02/28 04:28:35;;;;;;;11.82;5.88;;;;;;;-0.02;74.86;102838.25;4977386;28;20022;-71
2022/02/28 04:31:02;;;;;;;16.98;6.18;;;;;;;-0.02;74.85;102834.81;4956413;28;20119;-71
2022/02/28 04:33:28;;;;;;;12.52;6.15;;;;;;;-0.08;75.18;102833.25;4970824;28;20031;-70
2022/02/28 04:35:54;;;;;;;14.00;6.00;;;;;;;-0.21;75.49;102837.84;4972922;28;20369;-71
2022/02/28 04:38:21;;;;;;;13.93;6.10;;;;;;;-0.29;75.55;102836.34;4971623;28;20034;-71
2022/02/28 04:40:47;;;;;;;15.88;6.38;;;;;;;-0.26;75.24;102834.56;4956072;28;20046;-71
2022/02/28 04:43:13;;;;;;;15.00;7.05;;;;;;;-0.32;75.80;102837.25;4969940;28;20035;-71
2022/02/28 04:45:39;;;;;;;14.30;6.03;;;;;;;-0.23;75.58;102841.28;4971962;28;20188;-71
2022/02/28 04:48:05;;;;;;;13.50;6.57;;;;;;;-0.21;75.44;102836.97;4972139;28;20568;-70
2022/02/28 04:50:56;;;;;;;13.27;6.63;;;;;;;-0.25;75.85;102831.13;4977454;28;20051;-70
2022/02/28 04:53:24;;;;;;;18.08;6.75;;;;;;;-0.30;76.21;102839.75;4977645;28;20070;-71
2022/02/28 04:55:51;;;;;;;13.93;6.65;;;;;;;-0.27;76.09;102839.69;4962951;28;20030;-71
2022/02/28 04:58:18;;;;;;;13.70;5.78;;;;;;;-0.20;76.10;102831.84;4987239;28;20068;-71
2022/02/28 05:00:54;;;;;;;13.57;6.43;;;;;;;-0.16;75.63;102830.06;4967425;28;20031;-71
2022/02/28 05:03:20;;;;;;;15.73;6.68;;;;;;;-0.14;75.73;102824.94;5001351;28;20046;-71
2022/02/28 05:05:45;;;;;;;18.10;6.68;;;;;;;-0.25;75.73;102832.84;4978707;28;20236;-70
2022/02/28 05:08:12;;;;;;;12.40;5.78;;;;;;;-0.24;75.84;102831.97;4970923;28;20062;-72
2022/02/28 05:10:37;;;;;;;18.35;7.25;;;;;;;-0.29;76.15;102829.50;4973730;28;20062;-70
2022/02/28 05:13:14;;;;;;;15.43;6.93;;;;;;;-0.26;75.94;102824.34;4967080;28;20059;-71
2022/02/28 05:15:40;;;;;;;16.05;6.28;;;;;;;-0.31;75.73;102831.28;4991749;28;20412;-71
2022/02/28 05:18:07;;;;;;;15.32;6.75;;;;;;;-0.18;76.07;102829.28;4958089;28;20789;-71
2022/02/28 05:20:33;;;;;;;13.20;5.43;;;;;;;-0.14;75.52;102832.59;4970949;28;20031;-71
2022/02/28 05:22:58;;;;;;;16.95;7.15;;;;;;;-0.20;75.22;102831.03;4973030;28;20030;-71
2022/02/28 05:25:24;;;;;;;14.50;6.03;;;;;;;-0.11;74.98;102829.97;4972000;28;20035;-71
2022/02/28 05:27:52;;;;;;;18.70;6.90;;;;;;;-0.21;75.51;102822.53;4969405;28;20086;-71
2022/02/28 05:30:18;;;;;;;14.75;6.50;;;;;;;-0.29;75.34;102818.50;4957648;28;20188;-71
2022/02/28 05:32:46;;;;;;;20.65;7.43;;;;;;;-0.17;75.45;102823.31;4970993;28;20042;-71
2022/02/28 05:35:38;;;;;;;15.88;6.50;;;;;;;-0.35;75.82;102823.75;4969716;28;20039;-71
2022/02/28 05:38:09;;;;;;;15.75;6.20;;;;;;;-0.38;76.02;102828.91;4968469;28;20057;-71
2022/02/28 05:40:38;;;;;;;14.65;6.68;;;;;;;-0.46;76.07;102821.44;4980026;28;20096;-71
2022/02/28 05:43:06;;;;;;;17.52;6.43;;;;;;;-0.36;75.87;102825.44;4972568;28;20096;-71
2022/02/28 05:45:36;;;;;;;16.02;7.03;;;;;;;-0.28;75.50;102822.72;4970920;28;20034;-71
2022/02/28 05:48:28;;;;;;;16.92;7.22;;;;;;;-0.35;75.54;102827.13;4983906;28;20046;-71
2022/02/28 05:50:54;;;;;;;15.05;6.90;;;;;;;-0.27;75.19;102822.66;4974988;28;20501;-71
2022/02/28 05:53:20;;;;;;;16.23;7.07;;;;;;;-0.33;75.54;102822.00;4988737;28;20035;-71
2022/02/28 05:55:45;;;;;;;17.20;7.25;;;;;;;-0.30;75.38;102822.75;4955158;28;20089;-71
2022/02/28 05:58:10;;;;;;;21.30;7.43;;;;;;;-0.39;75.55;102817.88;4990662;28;20085;-71
2022/02/28 06:00:36;;;;;;;15.43;7.05;;;;;;;-0.37;76.08;102813.56;4985967;28;20484;-71
2022/02/28 06:03:02;;;;;;;12.40;6.85;;;;;;;-0.36;75.53;102825.44;4970050;28;20034;-71
2022/02/28 06:05:27;;;;;;;15.40;6.95;;;;;;;-0.30;75.19;102822.75;4979322;28;20026;-69
2022/02/28 06:07:53;;;;;;;15.60;6.97;;;;;;;-0.29;75.60;102826.97;4986062;28;20511;-69
2022/02/28 06:10:18;;;;;;;13.32;6.55;;;;;;;-0.28;75.52;102830.38;4986622;28;20037;-69
2022/02/28 06:12:44;;;;;;;17.45;6.45;;;;;;;-0.30;75.89;102827.00;4987214;28;20046;-69
2022/02/28 06:15:09;;;;;;;13.25;6.57;;;;;;;-0.27;75.44;102832.03;4984740;28;20031;-68
2022/02/28 06:17:36;;;;;;;16.73;7.70;;;;;;;-0.24;75.01;102834.53;4962719;28;20540;-69
2022/02/28 06:20:05;;;;;;;15.88;7.10;;;;;;;-0.28;75.08;102830.38;4982698;28;20486;-69
2022/02/28 06:22:30;;;;;;;14.80;6.57;;;;;;;-0.16;74.73;102835.16;4970297;28;20033;-69
2022/02/28 06:24:58;;;;;;;15.48;6.68;;;;;;;-0.16;74.51;102842.81;4969116;28;20093;-69
2022/02/28 06:27:25;;;;;;;15.48;7.07;;;;;;;-0.17;74.71;102841.16;4987239;28;20018;-69
2022/02/28 06:29:51;;;;;;;13.30;6.68;;;;;;;-0.24;74.58;102847.28;4969496;28;20041;-69
2022/02/28 06:32:19;;;;;;;15.20;7.45;;;;;;;-0.32;75.02;102852.56;4984882;28;20034;-69
2022/02/28 06:34:45;;;;;;;17.38;7.90;;;;;;;-0.25;75.50;102856.63;4984537;28;20110;-69
2022/02/28 06:37:11;;;;;;;14.73;6.85;;;;;;;-0.22;74.94;102851.47;4966794;28;20042;-69
2022/02/28 06:39:37;;;;;;;18.23;6.55;;;;;;;-0.23;74.89;102856.59;4969770;28;20038;-69
2022/02/28 06:42:03;;;;;;;16.88;6.85;;;;;;;-0.21;74.87;102853.16;4969091;28;20034;-69
2022/02/28 06:44:29;;;;;;;14.68;6.60;;;;;;;-0.17;74.46;102853.06;4969487;28;20038;-69
2022/02/28 06:46:54;;;;;;;13.18;6.68;;;;;;;-0.09;74.44;102856.28;4998443;28;20088;-68
2022/02/28 06:49:20;;;;;;;20.30;7.30;;;;;;;-0.05;74.48;102851.06;4984382;28;20787;-69
2022/02/28 06:51:46;;;;;;;14.52;7.22;;;;;;;-0.03;74.17;102856.97;4968482;28;20038;-69
2022/02/28 06:54:11;;;;;;;16.90;6.85;;;;;;;-0.10;74.27;102859.69;4965095;28;20026;-69
2022/02/28 06:56:37;;;;;;;16.65;7.78;;;;;;;-0.04;74.03;102855.28;4984687;28;20102;-69
2022/02/28 06:59:02;;;;;;;19.27;7.38;;;;;;;-0.07;74.36;102862.19;4986887;28;20053;-69
2022/02/28 07:01:31;;;;;;;13.50;7.20;;;;;;;0.00;74.07;102853.50;4984550;28;20030;-69
2022/02/28 07:04:03;;;;;;;15.05;7.78;;;;;;;0.03;73.93;102853.41;4984385;28;20497;-69
2022/02/28 07:06:29;;;;;;;16.25;7.13;;;;;;;-0.01;74.40;102846.72;4969195;28;20034;-69
2022/02/28 07:08:55;;;;;;;18.52;7.78;;;;;;;0.09;73.72;102845.59;4971613;28;20617;-69
2022/02/28 07:11:21;;;;;;;18.02;7.38;;;;;;;0.08;73.97;102841.41;4968389;28;20034;-69
2022/02/28 07:13:47;;;;;;;18.08;7.68;;;;;;;0.23;73.50;102832.53;4986066;28;20038;-69
2022/02/28 07:16:14;;;;;;;15.93;8.02;;;;;;;0.22;73.77;102838.50;4987063;28;20037;-69
2022/02/28 07:18:40;;;;;;;15.88;7.35;;;;;;;0.34;73.24;102840.75;4991410;28;20034;-69
2022/02/28 07:21:05;;;;;;;21.80;7.22;;;;;;;0.25;72.96;102837.59;4990646;28;20037;-69
2022/02/28 07:23:31;;;;;;;14.95;7.00;;;;;;;0.36;72.96;102835.59;4983442;28;20041;-69
2022/02/28 07:25:56;;;;;;;13.05;7.05;;;;;;;0.48;72.70;102836.97;4987509;28;20088;-69
2022/02/28 07:28:22;;;;;;;13.32;7.68;;;;;;;0.56;72.26;102842.72;4986705;28;20023;-69
2022/02/28 07:30:47;;;;;;;15.48;7.53;;;;;;;1.00;71.02;102839.81;4969061;28;20598;-69
2022/02/28 07:33:13;;;;;;;17.50;9.25;;;;;;;1.32;69.74;102841.44;4969540;28;20049;-69
2022/02/28 07:35:38;;;;;;;17.20;7.90;;;;;;;1.63;68.55;102838.75;4969096;28;20519;-70
2022/02/28 07:38:05;;;;;;;15.18;7.55;;;;;;;2.00;66.87;102831.63;4983606;28;20046;-68
2022/02/28 07:40:30;;;;;;;20.55;7.50;;;;;;;2.22;66.13;102840.25;4981226;28;20456;-69
2022/02/28 07:42:56;;;;;;;18.98;7.43;;;;;;;2.48;64.96;102844.47;4984795;28;20042;-70
2022/02/28 07:45:22;;;;;;;14.65;7.60;;;;;;;2.69;63.55;102842.06;4982025;28;20042;-69
2022/02/28 07:47:47;;;;;;;15.50;7.30;;;;;;;2.81;63.18;102841.63;4988511;28;20038;-69
2022/02/28 07:50:13;;;;;;;17.52;7.75;;;;;;;2.82;63.06;102843.28;4968382;28;20039;-69
2022/02/28 07:52:38;;;;;;;14.18;7.13;;;;;;;3.10;62.12;102847.41;4970409;28;20058;-69
2022/02/28 07:55:05;;;;;;;14.77;7.00;;;;;;;3.22;61.88;102844.41;4985005;28;20043;-70
2022/02/28 07:57:31;;;;;;;15.98;7.10;;;;;;;3.23;61.22;102840.09;4983813;28;20077;-70
2022/02/28 07:59:56;;;;;;;25.10;11.00;;;;;;;3.51;61.27;102830.44;4966487;28;20101;-70
2022/02/28 08:02:23;;;;;;;15.00;7.43;;;;;;;3.33;60.72;102831.13;4985065;28;20034;-70
2022/02/28 08:04:48;;;;;;;19.90;9.13;;;;;;;3.53;60.53;102835.50;4966973;28;20034;-69
2022/02/28 08:07:13;;;;;;;14.85;7.55;;;;;;;3.57;60.29;102837.03;4957266;28;20118;-70
2022/02/28 08:09:39;;;;;;;15.48;6.85;;;;;;;3.96;59.01;102843.22;4970474;28;20022;-69
2022/02/28 08:12:05;;;;;;;17.77;7.65;;;;;;;4.14;58.52;102845.00;4965180;28;20460;-70
2022/02/28 08:14:31;;;;;;;13.82;7.13;;;;;;;4.33;58.72;102851.94;4985356;28;20027;-70
2022/02/28 08:16:56;;;;;;;16.33;8.07;;;;;;;4.45;57.86;102857.38;4966096;28;21942;-70
2022/02/28 08:19:22;;;;;;;16.52;7.53;;;;;;;4.51;56.83;102858.88;4968896;28;20052;-69
2022/02/28 08:21:48;;;;;;;16.08;6.80;;;;;;;4.37;57.13;102840.63;4969354;28;20041;-69
2022/02/28 08:24:13;;;;;;;14.48;8.13;;;;;;;4.38;57.74;102852.59;4969081;28;20041;-69
2022/02/28 08:26:39;;;;;;;14.07;7.53;;;;;;;4.71;56.55;102840.00;4963316;28;20034;-69
2022/02/28 08:29:04;;;;;;;16.83;6.85;;;;;;;5.07;55.51;102849.56;4966040;28;20034;-70
2022/02/28 08:31:30;;;;;;;14.95;7.40;;;;;;;5.55;53.93;102857.63;4986387;28;20049;-69
2022/02/28 08:33:55;;;;;;;13.75;6.88;;;;;;;5.75;53.38;102861.81;4974500;28;20515;-69
2022/02/28 08:36:21;;;;;;;16.05;7.05;;;;;;;5.88;52.61;102865.47;4978131;28;20488;-69
2022/02/28 08:38:46;;;;;;;13.02;6.53;;;;;;;6.29;52.50;102860.03;4988645;28;20030;-69
2022/02/28 08:41:12;;;;;;;15.90;6.90;;;;;;;6.05;51.79;102862.09;4971640;28;20468;-69
2022/02/28 08:43:38;;;;;;;12.10;6.93;;;;;;;6.32;51.63;102866.75;4993405;28;20054;-69
2022/02/28 08:46:04;;;;;;;18.63;8.43;;;;;;;5.87;51.80;102873.25;4972000;28;20089;-69
2022/02/28 08:48:29;;;;;;;19.45;9.75;;;;;;;6.10;52.08;102865.25;4972006;28;20508;-69
2022/02/28 08:50:55;;;;;;;25.42;9.50;;;;;;;6.40;51.49;102857.75;4990600;28;20030;-69
2022/02/28 08:53:21;;;;;;;26.75;11.90;;;;;;;6.19;51.25;102864.78;4988262;28;20030;-69
2022/02/28 08:55:46;;;;;;;33.13;13.48;;;;;;;6.21;51.07;102868.13;4990424;28;20038;-69
2022/02/28 08:58:12;;;;;;;36.10;13.45;;;;;;;6.54;50.12;102872.50;4972851;28;20114;-69
2022/02/28 09:00:38;;;;;;;39.83;14.13;;;;;;;6.19;50.46;102869.94;4987170;28;20034;-68
2022/02/28 09:03:06;;;;;;;17.67;8.68;;;;;;;5.94;51.10;102862.56;4991687;28;20166;-69
2022/02/28 09:05:33;;;;;;;20.63;8.15;;;;;;;6.46;50.65;102866.06;4979735;28;20102;-69
2022/02/28 09:07:59;;;;;;;15.25;7.45;;;;;;;6.33;51.23;102864.13;4990627;28;20180;-69
2022/02/28 09:10:24;;;;;;;20.33;9.63;;;;;;;6.20;50.77;102865.66;4989319;28;20032;-69
2022/02/28 09:12:50;;;;;;;21.95;9.55;;;;;;;6.02;51.21;102868.22;4975360;28;20488;-69
2022/02/28 09:15:16;;;;;;;18.35;7.68;;;;;;;6.20;50.95;102861.31;4972737;28;20034;-69
2022/02/28 09:17:41;;;;;;;13.93;7.32;;;;;;;6.58;50.62;102858.53;4992577;28;20729;-69
2022/02/28 09:20:08;;;;;;;14.15;7.15;;;;;;;6.75;49.93;102861.97;4971884;28;20408;-69
2022/02/28 09:22:33;;;;;;;16.10;7.20;;;;;;;6.60;50.10;102861.03;4975587;28;20035;-69
2022/02/28 09:24:59;;;;;;;12.82;7.32;;;;;;;6.89;50.25;102864.63;4986077;28;20030;-69
2022/02/28 09:27:26;;;;;;;14.25;7.20;;;;;;;7.02;50.00;102855.34;4990022;28;20038;-69
2022/02/28 09:29:52;;;;;;;14.52;6.80;;;;;;;6.69;50.07;102863.13;4978853;28;20165;-69
2022/02/28 09:32:17;;;;;;;16.70;8.00;;;;;;;5.93;50.42;102855.75;4990091;28;20023;-68
2022/02/28 09:34:43;;;;;;;17.15;8.45;;;;;;;5.99;51.40;102865.81;4990342;28;20574;-69
2022/02/28 09:37:08;;;;;;;13.98;7.40;;;;;;;6.23;52.32;102863.75;4968634;28;20022;-69
2022/02/28 09:39:35;;;;;;;15.73;7.47;;;;;;;6.14;51.43;102853.06;4987482;28;20416;-69
2022/02/28 09:42:21;;;;;;;13.50;7.47;;;;;;;6.12;52.52;102853.16;4982307;28;20065;-69
2022/02/28 09:45:06;;;;;;;19.65;7.55;;;;;;;6.16;51.50;102851.22;4988977;28;20424;-69
2022/02/28 09:47:50;;;;;;;15.55;7.22;;;;;;;6.03;50.85;102856.19;4982376;28;20105;-69
2022/02/28 09:50:34;;;;;;;15.48;7.22;;;;;;;6.18;52.20;102860.56;4988681;28;20077;-69
2022/02/28 09:53:00;;;;;;;12.93;7.47;;;;;;;6.18;51.39;102854.59;4988824;28;20050;-69
2022/02/28 09:55:44;;;;;;;17.23;7.72;;;;;;;5.99;51.49;102864.94;4975853;28;20077;-69
2022/02/28 09:58:30;;;;;;;14.98;7.25;;;;;;;6.16;50.78;102864.97;4970419;28;20094;-69
2022/02/28 10:00:58;;;;;;;18.17;7.10;;;;;;;6.00;50.62;102869.19;4967659;28;20092;-69
2022/02/28 10:03:27;;;;;;;13.65;7.88;;;;;;;6.04;51.48;102860.41;4953402;28;20693;-69
2022/02/28 10:06:01;;;;;;;15.85;7.35;;;;;;;6.09;51.72;102858.44;4975405;28;20034;-69
2022/02/28 10:08:45;;;;;;;17.33;7.50;;;;;;;6.21;51.00;102865.53;4982572;28;20049;-69
2022/02/28 10:11:32;;;;;;;14.82;7.93;;;;;;;6.26;51.13;102867.91;4972894;28;20030;-69
2022/02/28 10:14:03;;;;;;;19.38;7.90;;;;;;;6.35;50.64;102874.34;4989426;28;20026;-69
2022/02/28 10:16:47;;;;;;;13.75;7.65;;;;;;;6.38;50.71;102874.19;4985886;28;20046;-69
2022/02/28 10:19:15;;;;;;;16.83;8.48;;;;;;;6.60;51.82;102871.34;4972069;28;20088;-69
2022/02/28 10:22:01;;;;;;;16.85;8.00;;;;;;;6.67;49.96;102869.25;4986859;28;20408;-69
2022/02/28 10:24:26;;;;;;;14.13;7.50;;;;;;;6.73;49.50;102868.97;4986127;28;20619;-69
2022/02/28 10:27:15;;;;;;;17.73;7.90;;;;;;;6.44;50.17;102868.69;4989373;28;20096;-69
2022/02/28 10:29:59;;;;;;;18.90;8.35;;;;;;;6.51;50.24;102869.22;4987065;28;20040;-69
2022/02/28 10:32:50;;;;;;;16.17;7.90;;;;;;;6.68;49.84;102856.28;4986603;28;20046;-69
2022/02/28 10:35:59;;;;;;;16.70;7.95;;;;;;;6.66;49.69;102867.63;4917584;28;20503;-68
2022/02/28 10:38:57;;;;;;;14.98;7.82;;;;;;;6.65;49.86;102871.94;4981031;28;20412;-69
2022/02/28 10:41:26;;;;;;;18.50;8.88;;;;;;;6.77;50.64;102873.03;4966543;28;20042;-69
2022/02/28 10:43:55;;;;;;;16.50;8.48;;;;;;;6.89;50.09;102874.13;4988056;28;20133;-69
2022/02/28 10:46:26;;;;;;;16.38;7.63;;;;;;;7.00;50.34;102862.31;4986055;28;20453;-69
2022/02/28 10:49:11;;;;;;;14.82;7.28;;;;;;;7.04;50.76;102859.59;4987440;28;20038;-69
2022/02/28 10:51:49;;;;;;;17.10;8.45;;;;;;;7.08;49.19;102867.06;4988490;28;20057;-69
2022/02/28 10:54:25;;;;;;;18.02;9.25;;;;;;;7.18;49.50;102857.94;4988570;28;20048;-69
2022/02/28 10:57:10;;;;;;;16.70;8.35;;;;;;;7.25;49.96;102860.16;4987427;28;20545;-69
2022/02/28 10:59:45;;;;;;;18.65;8.05;;;;;;;7.22;49.09;102850.84;4984063;28;20488;-69
2022/02/28 11:02:40;;;;;;;13.35;7.63;;;;;;;7.16;49.51;102846.03;4970958;28;20133;-67
2022/02/28 11:05:07;;;;;;;17.15;7.63;;;;;;;7.27;48.55;102848.00;4987480;28;20038;-69
2022/02/28 11:07:41;;;;;;;18.88;8.00;;;;;;;7.10;49.42;102843.78;4986463;28;20034;-69
2022/02/28 11:10:09;;;;;;;15.10;8.38;;;;;;;7.20;48.95;102837.22;4984544;28;20042;-69
2022/02/28 11:12:35;;;;;;;16.50;7.55;;;;;;;7.17;48.20;102832.22;4984488;28;20610;-69
2022/02/28 11:15:09;;;;;;;16.75;8.13;;;;;;;7.28;49.03;102829.88;4970091;28;20074;-69
2022/02/28 11:17:37;;;;;;;17.38;8.57;;;;;;;7.48;47.97;102827.91;4983646;28;20113;-69
2022/02/28 11:20:10;;;;;;;14.88;7.40;;;;;;;7.44;47.90;102816.09;4970472;28;20034;-69
2022/02/28 11:22:38;;;;;;;17.17;6.90;;;;;;;7.63;47.71;102818.47;4998763;28;20038;-67
2022/02/28 11:25:05;;;;;;;14.68;6.93;;;;;;;7.63;47.16;102818.47;4986545;28;20030;-69
2022/02/28 11:27:31;;;;;;;14.57;7.10;;;;;;;7.58;46.10;102817.00;4986611;28;20042;-68
2022/02/28 11:30:00;;;;;;;13.27;7.20;;;;;;;7.67;46.83;102813.06;4985878;28;20105;-69